createdAt,value
2022-11-09T00:01:01.500Z,98206.56
2022-11-09T00:03:27.927Z,98193.63
2022-11-09T00:05:58.900Z,98196.78
2022-11-09T00:08:25.586Z,98147.53
2022-11-09T00:10:52.209Z,98119.19
2022-11-09T00:13:19.084Z,98044.13
2022-11-09T00:15:45.654Z,98026.53
2022-11-09T00:18:12.131Z,97970.00
2022-11-09T00:20:44.515Z,97960.06
2022-11-09T00:23:13.562Z,97919.91
2022-11-09T00:25:39.975Z,97899.09
2022-11-09T00:28:06.626Z,97854.44
2022-11-09T00:30:33.016Z,97827.78
2022-11-09T00:32:59.430Z,97796.97
2022-11-09T00:35:26.436Z,97758.50
2022-11-09T00:37:52.880Z,97720.09
2022-11-09T00:40:19.337Z,97656.28
2022-11-09T00:42:45.781Z,97601.56
2022-11-09T00:45:12.210Z,97580.63
2022-11-09T00:47:38.637Z,97537.00
2022-11-09T00:50:05.746Z,97512.97
2022-11-09T00:52:32.153Z,97474.47
2022-11-09T00:54:58.553Z,97468.81
2022-11-09T00:57:24.971Z,97434.13
2022-11-09T00:59:51.938Z,97400.22
2022-11-09T01:02:18.315Z,97372.47
2022-11-09T01:04:44.719Z,97323.56
2022-11-09T01:07:11.327Z,97315.78
2022-11-09T01:09:38.035Z,97296.22
2022-11-09T01:12:04.532Z,97305.63
2022-11-09T01:14:31.008Z,97278.22
2022-11-09T01:16:57.499Z,97290.13
2022-11-09T01:19:24.530Z,97269.59
2022-11-09T01:21:50.934Z,97296.59
2022-11-09T01:24:17.347Z,97316.59
2022-11-09T01:26:43.832Z,97332.97
2022-11-09T01:29:10.269Z,97346.81
2022-11-09T01:31:36.668Z,97360.22
2022-11-09T01:34:03.171Z,97375.13
2022-11-09T01:36:29.979Z,97361.38
2022-11-09T01:38:56.427Z,97346.63
2022-11-09T01:41:28.533Z,97360.13
2022-11-09T01:44:13.155Z,97340.06
2022-11-09T01:46:51.951Z,97396.56
2022-11-09T01:49:41.017Z,97445.41
2022-11-09T01:52:13.984Z,97451.13
2022-11-09T01:54:53.443Z,97472.81
2022-11-09T01:57:25.971Z,97497.56
2022-11-09T01:59:56.490Z,97489.09
2022-11-09T02:02:23.277Z,97477.41
2022-11-09T02:05:00.680Z,97485.75
2022-11-09T02:07:28.280Z,97522.97
2022-11-09T02:10:22.925Z,97541.91
2022-11-09T02:12:49.965Z,97572.22
2022-11-09T02:15:16.619Z,97612.03
2022-11-09T02:17:43.645Z,97657.38
2022-11-09T02:20:14.292Z,97659.16
2022-11-09T02:22:41.724Z,97642.78
2022-11-09T02:25:10.081Z,97671.59
2022-11-09T02:27:37.560Z,97680.66
2022-11-09T02:30:06.313Z,97682.31
2022-11-09T02:32:32.760Z,97683.94
2022-11-09T02:34:59.276Z,97705.25
2022-11-09T02:37:26.769Z,97723.53
2022-11-09T02:39:53.622Z,97691.78
2022-11-09T02:42:21.601Z,97651.09
2022-11-09T02:44:51.833Z,97626.75
2022-11-09T02:47:18.383Z,97612.44
2022-11-09T02:49:44.789Z,97554.28
2022-11-09T02:52:11.217Z,97524.22
2022-11-09T02:54:37.709Z,97499.66
2022-11-09T02:57:04.257Z,97445.28
2022-11-09T02:59:30.675Z,97398.59
2022-11-09T03:01:57.122Z,97307.44
2022-11-09T03:04:23.549Z,97297.19
2022-11-09T03:06:49.985Z,97243.94
2022-11-09T03:09:16.773Z,97187.34
2022-11-09T03:11:43.338Z,97129.59
2022-11-09T03:14:09.887Z,97067.13
2022-11-09T03:16:39.875Z,96970.47
2022-11-09T03:19:07.244Z,96880.34
2022-11-09T03:21:33.996Z,96797.00
2022-11-09T03:24:00.450Z,96714.53
2022-11-09T03:26:26.992Z,96708.22
2022-11-09T03:28:53.480Z,96985.72
2022-11-09T03:31:19.888Z,97049.25
2022-11-09T03:33:46.298Z,97048.44
2022-11-09T03:36:13.003Z,97043.97
2022-11-09T03:38:39.409Z,97021.56
2022-11-09T03:41:05.806Z,97013.16
2022-11-09T03:43:32.541Z,97011.13
2022-11-09T03:45:59.072Z,97003.25
2022-11-09T03:48:25.522Z,97004.13
2022-11-09T03:50:51.946Z,96998.38
2022-11-09T03:53:19.523Z,96986.63
2022-11-09T03:55:46.180Z,96960.53
2022-11-09T03:58:15.993Z,96949.09
2022-11-09T04:00:42.435Z,96954.03
2022-11-09T04:03:08.903Z,96931.41
2022-11-09T04:05:35.958Z,96930.44
2022-11-09T04:08:02.416Z,96919.84
2022-11-09T04:10:28.853Z,96906.22
2022-11-09T04:12:55.476Z,96899.53
2022-11-09T04:15:21.926Z,96862.63
2022-11-09T04:18:00.105Z,96880.41
2022-11-09T04:20:28.897Z,96882.44
2022-11-09T04:22:57.789Z,96859.88
2022-11-09T04:25:25.963Z,96816.75
2022-11-09T04:27:57.284Z,96853.53
2022-11-09T04:30:24.807Z,96839.69
2022-11-09T04:32:51.285Z,96829.91
2022-11-09T04:35:17.732Z,96814.41
2022-11-09T04:37:44.218Z,96790.38
2022-11-09T04:40:11.285Z,96763.88
2022-11-09T04:42:37.713Z,96769.22
2022-11-09T04:45:04.501Z,96764.97
2022-11-09T04:47:30.956Z,96733.19
2022-11-09T04:49:57.378Z,96735.00
2022-11-09T04:52:23.784Z,96750.09
2022-11-09T04:54:50.180Z,96750.50
2022-11-09T04:57:16.577Z,96751.72
2022-11-09T04:59:42.964Z,96751.72
2022-11-09T05:02:09.360Z,96756.22
2022-11-09T05:04:35.727Z,96764.78
2022-11-09T05:07:02.255Z,96786.38
2022-11-09T05:09:28.742Z,96807.19
2022-11-09T05:11:55.155Z,96829.22
2022-11-09T05:14:21.552Z,96821.44
2022-11-09T05:16:47.982Z,96856.13
2022-11-09T05:19:14.551Z,96869.16
2022-11-09T05:21:40.938Z,96881.41
2022-11-09T05:24:07.665Z,96896.69
2022-11-09T05:26:39.094Z,96915.81
2022-11-09T05:29:08.446Z,96918.66
2022-11-09T05:31:34.930Z,96912.09
2022-11-09T05:34:01.646Z,96902.53
2022-11-09T05:36:30.467Z,96924.00
2022-11-09T05:39:00.204Z,96928.47
2022-11-09T05:41:26.796Z,96953.97
2022-11-09T05:43:53.533Z,96976.78
2022-11-09T05:46:20.346Z,96979.59
2022-11-09T05:48:47.141Z,96995.50
2022-11-09T05:51:14.790Z,97004.84
2022-11-09T05:53:46.057Z,97000.72
2022-11-09T05:56:14.312Z,97014.19
2022-11-09T05:58:41.942Z,97013.34
2022-11-09T06:01:10.740Z,97025.56
2022-11-09T06:03:37.216Z,97031.00
2022-11-09T06:06:08.607Z,97035.44
2022-11-09T06:08:35.694Z,97058.66
2022-11-09T06:11:05.227Z,97040.75
2022-11-09T06:13:32.311Z,97052.34
2022-11-09T06:16:01.642Z,97036.34
2022-11-09T06:18:29.750Z,97063.31
2022-11-09T06:20:58.468Z,97040.66
2022-11-09T06:23:25.668Z,97035.97
2022-11-09T06:25:59.855Z,97022.84
2022-11-09T06:28:26.771Z,97036.81
2022-11-09T06:30:53.600Z,97031.88
2022-11-09T06:33:20.238Z,97031.69
2022-11-09T06:35:49.781Z,97034.75
2022-11-09T06:38:18.557Z,97029.69
2022-11-09T06:40:44.961Z,97035.38
2022-11-09T06:43:11.416Z,97031.53
2022-11-09T06:45:37.824Z,97033.19
2022-11-09T06:48:04.535Z,97037.47
2022-11-09T06:50:33.258Z,97033.19
2022-11-09T06:53:05.936Z,97033.66
2022-11-09T06:55:34.347Z,97030.72
2022-11-09T06:58:04.838Z,97032.78
2022-11-09T07:00:31.322Z,97035.69
2022-11-09T07:02:57.752Z,97034.19
2022-11-09T07:05:24.214Z,97026.66
2022-11-09T07:07:50.788Z,97032.44
2022-11-09T07:10:17.573Z,97045.28
2022-11-09T07:12:44.115Z,97045.44
2022-11-09T07:15:11.611Z,97043.53
2022-11-09T07:17:39.753Z,97055.75
2022-11-09T07:20:07.691Z,97057.81
2022-11-09T07:22:40.143Z,97034.41
2022-11-09T07:25:08.546Z,97070.25
2022-11-09T07:27:35.668Z,97059.44
2022-11-09T07:30:02.711Z,97053.31
2022-11-09T07:33:01.868Z,97039.72
2022-11-09T07:35:15.577Z,97059.41
2022-11-09T07:37:41.959Z,97055.41
2022-11-09T07:40:09.114Z,97054.59
2022-11-09T07:42:35.530Z,97050.53
2022-11-09T07:45:01.947Z,97068.03
2022-11-09T07:47:28.334Z,97063.34
2022-11-09T07:49:54.799Z,97064.47
2022-11-09T07:52:21.263Z,97071.75
2022-11-09T07:54:52.008Z,97081.19
2022-11-09T07:57:18.910Z,97071.22
2022-11-09T07:59:45.360Z,97059.66
2022-11-09T08:02:12.070Z,97082.06
2022-11-09T08:04:38.566Z,97084.94
2022-11-09T08:07:05.017Z,97079.66
2022-11-09T08:09:31.588Z,97054.63
2022-11-09T08:11:58.046Z,97084.13
2022-11-09T08:14:24.649Z,97072.41
2022-11-09T08:16:51.123Z,97076.56
2022-11-09T08:19:17.567Z,97082.09
2022-11-09T08:21:44.478Z,97083.13
2022-11-09T08:24:10.900Z,97083.94
2022-11-09T08:26:37.366Z,97094.97
2022-11-09T08:29:04.166Z,97093.28
2022-11-09T08:31:31.083Z,97106.75
2022-11-09T08:33:57.504Z,97131.69
2022-11-09T08:36:26.041Z,97119.19
2022-11-09T08:38:52.884Z,97143.47
2022-11-09T08:41:19.289Z,97130.44
2022-11-09T08:43:45.843Z,97118.97
2022-11-09T08:46:12.292Z,97115.00
2022-11-09T08:48:39.164Z,97138.66
2022-11-09T08:51:05.756Z,97157.00
2022-11-09T08:53:32.188Z,97129.25
2022-11-09T08:55:58.869Z,97149.22
2022-11-09T08:58:25.520Z,97157.88
2022-11-09T09:00:52.068Z,97160.31
2022-11-09T09:03:18.876Z,97158.41
2022-11-09T09:05:45.330Z,97177.78
2022-11-09T09:08:12.937Z,97178.41
2022-11-09T09:10:40.413Z,97181.47
2022-11-09T09:13:07.480Z,97173.13
2022-11-09T09:15:34.040Z,97177.19
2022-11-09T09:18:01.365Z,97198.56
2022-11-09T09:20:28.353Z,97188.22
2022-11-09T09:22:58.128Z,97190.50
2022-11-09T09:25:24.811Z,97200.75
2022-11-09T09:27:51.370Z,97193.50
2022-11-09T09:30:17.917Z,97190.72
2022-11-09T09:32:44.329Z,97195.63
2022-11-09T09:35:11.159Z,97171.94
2022-11-09T09:37:37.642Z,97168.41
2022-11-09T09:40:04.656Z,97142.31
2022-11-09T09:42:36.922Z,97125.03
2022-11-09T09:45:15.078Z,97011.63
2022-11-09T09:47:46.727Z,96978.88
2022-11-09T09:50:20.668Z,96974.28
2022-11-09T09:53:22.048Z,97031.63
2022-11-09T09:55:47.755Z,97092.00
2022-11-09T09:58:23.707Z,97250.50
2022-11-09T10:00:55.157Z,97271.69
2022-11-09T10:03:21.658Z,97391.47
2022-11-09T10:06:09.817Z,97419.06
2022-11-09T10:09:07.284Z,97497.13
2022-11-09T10:12:00.982Z,97476.25
2022-11-09T10:14:46.615Z,97591.25
2022-11-09T10:17:25.276Z,97523.69
2022-11-09T10:20:03.836Z,97592.38
2022-11-09T10:22:41.345Z,97689.56
2022-11-09T10:25:37.962Z,97605.44
2022-11-09T10:28:17.430Z,97580.13
2022-11-09T10:30:44.774Z,97669.44
2022-11-09T10:33:11.100Z,97682.59
2022-11-09T10:35:45.063Z,97650.66
2022-11-09T10:38:26.016Z,97706.50
2022-11-09T10:40:58.278Z,97701.97
2022-11-09T10:43:24.717Z,97624.50
2022-11-09T10:46:07.008Z,97627.84
2022-11-09T10:48:36.129Z,97619.88
2022-11-09T10:51:03.202Z,97622.78
2022-11-09T10:53:31.793Z,97623.69
2022-11-09T10:56:04.774Z,97604.47
2022-11-09T10:58:40.795Z,97639.66
2022-11-09T11:01:15.912Z,97698.47
2022-11-09T11:03:44.052Z,97707.19
2022-11-09T11:06:22.577Z,97698.34
2022-11-09T11:09:12.012Z,97619.56
2022-11-09T11:11:39.653Z,97558.84
2022-11-09T11:14:11.635Z,97538.78
2022-11-09T11:16:40.045Z,97515.63
2022-11-09T11:19:31.236Z,97523.19
2022-11-09T11:22:22.709Z,97474.03
2022-11-09T11:24:59.514Z,97355.25
2022-11-09T11:27:32.341Z,97271.34
2022-11-09T11:30:22.962Z,97236.06
2022-11-09T11:32:50.964Z,97233.56
2022-11-09T11:35:32.936Z,97255.09
2022-11-09T11:38:23.872Z,97279.56
2022-11-09T11:41:19.563Z,97307.16
2022-11-09T11:43:55.216Z,97379.97
2022-11-09T11:46:48.417Z,97406.00
2022-11-09T11:49:20.612Z,97493.50
2022-11-09T11:51:59.231Z,97533.03
2022-11-09T11:54:56.890Z,97524.44
2022-11-09T11:57:39.495Z,97534.69
2022-11-09T12:00:15.381Z,97522.78
2022-11-09T12:03:01.864Z,97534.91
2022-11-09T12:05:53.957Z,97540.63
2022-11-09T12:08:35.425Z,97541.69
2022-11-09T12:11:30.057Z,97554.59
2022-11-09T12:14:05.945Z,97563.81
2022-11-09T12:16:49.275Z,97543.53
2022-11-09T12:19:25.529Z,97565.06
2022-11-09T12:22:01.094Z,97537.19
2022-11-09T12:25:03.923Z,97577.94
2022-11-09T12:27:49.183Z,97579.19
2022-11-09T12:30:21.465Z,97578.56
2022-11-09T12:32:56.726Z,97563.19
2022-11-09T12:35:40.883Z,97566.69
2022-11-09T12:38:36.599Z,97577.75
2022-11-09T12:41:14.561Z,97565.25
2022-11-09T12:43:56.506Z,97578.75
2022-11-09T12:46:32.268Z,97586.34
2022-11-09T12:49:02.792Z,97590.00
2022-11-09T12:51:29.980Z,97573.19
2022-11-09T12:53:58.962Z,97577.53
2022-11-09T12:56:36.722Z,97556.41
2022-11-09T12:59:27.827Z,97550.66
2022-11-09T13:01:57.474Z,97526.91
2022-11-09T13:04:25.692Z,97596.56
2022-11-09T13:07:04.430Z,97588.78
2022-11-09T13:09:44.087Z,97569.94
2022-11-09T13:12:32.770Z,97600.91
2022-11-09T13:15:23.400Z,97605.19
2022-11-09T13:18:46.632Z,97627.72
2022-11-09T13:21:22.147Z,97646.22
2022-11-09T13:24:09.083Z,97646.63
2022-11-09T13:26:36.632Z,97652.53
2022-11-09T13:29:11.106Z,97672.84
2022-11-09T13:32:23.593Z,97654.63
2022-11-09T13:34:55.715Z,97661.38
2022-11-09T13:37:35.278Z,97675.13
2022-11-09T13:40:22.574Z,97662.19
2022-11-09T13:43:50.484Z,97666.06
2022-11-09T13:46:26.665Z,97655.44
2022-11-09T13:48:54.229Z,97681.88
2022-11-09T13:51:22.067Z,97675.28
2022-11-09T13:54:25.032Z,97674.47
2022-11-09T13:56:53.145Z,97668.16
2022-11-09T13:59:27.052Z,97678.59
2022-11-09T14:02:02.084Z,97676.09
2022-11-09T14:04:29.727Z,97666.91
2022-11-09T14:07:01.602Z,97670.78
2022-11-09T14:09:33.271Z,97679.38
2022-11-09T14:12:26.294Z,97657.25
2022-11-09T14:15:06.337Z,97684.28
2022-11-09T14:18:12.024Z,97688.00
2022-11-09T14:20:43.173Z,97697.00
2022-11-09T14:23:35.964Z,97697.19
2022-11-09T14:26:10.304Z,97698.19
2022-11-09T14:28:37.290Z,97700.22
2022-11-09T14:31:03.767Z,97702.69
2022-11-09T14:33:34.443Z,97688.31
2022-11-09T14:36:02.492Z,97677.38
2022-11-09T14:38:32.762Z,97676.16
2022-11-09T14:40:59.719Z,97673.91
2022-11-09T14:43:43.808Z,97666.13
2022-11-09T14:46:20.229Z,97654.56
2022-11-09T14:49:03.348Z,97686.97
2022-11-09T14:51:38.773Z,97672.84
2022-11-09T14:54:14.082Z,97691.81
2022-11-09T14:56:42.529Z,97674.38
2022-11-09T14:59:16.170Z,97691.41
2022-11-09T15:01:56.229Z,97689.38
2022-11-09T15:04:23.799Z,97669.22
2022-11-09T15:06:53.251Z,97684.81
2022-11-09T15:09:23.071Z,97678.44
2022-11-09T15:11:51.058Z,97690.50
2022-11-09T15:14:17.421Z,97670.44
2022-11-09T15:16:46.694Z,97666.69
2022-11-09T15:19:32.494Z,97675.28
2022-11-09T15:21:59.600Z,97651.25
2022-11-09T15:24:29.345Z,97639.97
2022-11-09T15:26:56.813Z,97647.94
2022-11-09T15:29:27.763Z,97639.09
2022-11-09T15:32:01.425Z,97632.97
2022-11-09T15:34:33.842Z,97629.91
2022-11-09T15:37:00.377Z,97616.97
2022-11-09T15:39:26.824Z,97613.25
2022-11-09T15:41:53.397Z,97597.69
2022-11-09T15:44:20.876Z,97601.78
2022-11-09T15:46:50.987Z,97611.84
2022-11-09T15:49:24.408Z,97604.66
2022-11-09T15:51:53.453Z,97596.47
2022-11-09T15:54:22.031Z,97596.28
2022-11-09T15:56:48.998Z,97593.38
2022-11-09T15:59:23.033Z,97564.28
2022-11-09T16:01:49.506Z,97589.09
2022-11-09T16:04:16.070Z,97584.19
2022-11-09T16:06:46.353Z,97580.88
2022-11-09T16:09:13.317Z,97572.31
2022-11-09T16:11:39.726Z,97555.91
2022-11-09T16:14:06.630Z,97560.84
2022-11-09T16:16:33.027Z,97558.59
2022-11-09T16:18:59.844Z,97507.69
2022-11-09T16:21:26.394Z,97549.75
2022-11-09T16:23:58.075Z,97548.75
2022-11-09T16:26:25.063Z,97519.84
2022-11-09T16:28:51.622Z,97521.13
2022-11-09T16:31:25.341Z,97498.56
2022-11-09T16:34:01.786Z,97500.03
2022-11-09T16:36:29.090Z,97491.28
2022-11-09T16:38:56.683Z,97482.69
2022-11-09T16:41:24.992Z,97454.03
2022-11-09T16:43:54.840Z,97463.88
2022-11-09T16:46:25.326Z,97436.06
2022-11-09T16:48:53.816Z,97431.97
2022-11-09T16:51:20.809Z,97391.13
2022-11-09T16:53:47.583Z,97408.00
2022-11-09T16:56:14.104Z,97426.66
2022-11-09T16:58:40.684Z,97415.59
2022-11-09T17:01:12.471Z,97413.94
2022-11-09T17:03:39.985Z,97403.53
2022-11-09T17:06:11.086Z,97418.69
2022-11-09T17:08:39.300Z,97422.13
2022-11-09T17:11:14.953Z,97415.16
2022-11-09T17:13:45.268Z,97406.19
2022-11-09T17:16:13.386Z,97417.81
2022-11-09T17:18:40.593Z,97415.53
2022-11-09T17:21:11.745Z,97393.44
2022-11-09T17:23:38.496Z,97386.25
2022-11-09T17:26:06.823Z,97398.38
2022-11-09T17:28:37.648Z,97397.94
2022-11-09T17:31:14.980Z,97392.84
2022-11-09T17:33:41.685Z,97398.75
2022-11-09T17:36:11.328Z,97404.31
2022-11-09T17:38:38.883Z,97399.97
2022-11-09T17:41:07.910Z,97388.13
2022-11-09T17:43:36.554Z,97383.59
2022-11-09T17:46:08.273Z,97401.19
2022-11-09T17:48:36.310Z,97408.16
2022-11-09T17:51:04.012Z,97410.16
2022-11-09T17:53:30.829Z,97420.41
2022-11-09T17:55:57.901Z,97413.88
2022-11-09T17:58:25.491Z,97411.78
2022-11-09T18:00:52.427Z,97419.56
2022-11-09T18:03:19.009Z,97419.94
2022-11-09T18:05:45.945Z,97424.66
2022-11-09T18:08:14.420Z,97413.00
2022-11-09T18:10:45.437Z,97393.31
2022-11-09T18:13:11.876Z,97388.63
2022-11-09T18:15:39.482Z,97396.25
2022-11-09T18:18:06.669Z,97397.47
2022-11-09T18:20:33.605Z,97400.91
2022-11-09T18:23:00.223Z,97381.47
2022-11-09T18:25:26.653Z,97374.50
2022-11-09T18:27:53.061Z,97379.03
2022-11-09T18:30:19.846Z,97375.34
2022-11-09T18:32:46.306Z,97375.31
2022-11-09T18:35:12.734Z,97379.81
2022-11-09T18:37:40.179Z,97353.41
2022-11-09T18:40:07.777Z,97355.69
2022-11-09T18:42:34.237Z,97351.13
2022-11-09T18:45:00.730Z,97329.03
2022-11-09T18:47:27.313Z,97318.19
2022-11-09T18:49:53.802Z,97328.22
2022-11-09T18:52:20.534Z,97318.91
2022-11-09T18:54:47.075Z,97311.88
2022-11-09T18:57:17.311Z,97314.16
2022-11-09T18:59:46.228Z,97327.00
2022-11-09T19:02:13.971Z,97308.03
2022-11-09T19:04:40.573Z,97306.97
2022-11-09T19:07:07.083Z,97304.75
2022-11-09T19:09:38.528Z,97321.28
2022-11-09T19:12:08.258Z,97312.28
2022-11-09T19:14:45.455Z,97324.34
2022-11-09T19:17:14.101Z,97300.75
2022-11-09T19:19:42.293Z,97335.19
2022-11-09T19:22:17.746Z,97323.66
2022-11-09T19:24:45.470Z,97315.88
2022-11-09T19:27:11.956Z,97329.19
2022-11-09T19:29:38.390Z,97316.47
2022-11-09T19:32:04.867Z,97293.88
2022-11-09T19:34:31.521Z,97322.38
2022-11-09T19:36:58.971Z,97336.91
2022-11-09T19:39:29.609Z,97326.16
2022-11-09T19:41:58.988Z,97340.13
2022-11-09T19:44:25.371Z,97342.75
2022-11-09T19:46:52.122Z,97322.28
2022-11-09T19:49:18.524Z,97327.22
2022-11-09T19:51:44.938Z,97338.59
2022-11-09T19:54:12.846Z,97341.91
2022-11-09T19:56:39.432Z,97321.38
2022-11-09T19:59:06.983Z,97321.97
2022-11-09T20:01:33.472Z,97327.53
2022-11-09T20:04:03.188Z,97338.56
2022-11-09T20:06:31.755Z,97317.66
2022-11-09T20:08:59.890Z,97338.56
2022-11-09T20:11:46.771Z,97357.19
2022-11-09T20:14:14.161Z,97356.94
2022-11-09T20:16:42.279Z,97364.28
2022-11-09T20:19:11.832Z,97361.75
2022-11-09T20:21:40.204Z,97374.13
2022-11-09T20:24:07.999Z,97384.63
2022-11-09T20:26:34.647Z,97382.94
2022-11-09T20:29:01.051Z,97376.38
2022-11-09T20:31:27.528Z,97365.97
2022-11-09T20:33:56.382Z,97376.00
2022-11-09T20:36:22.928Z,97388.66
2022-11-09T20:38:49.435Z,97400.69
2022-11-09T20:41:15.885Z,97411.09
2022-11-09T20:43:42.360Z,97417.22
2022-11-09T20:46:16.046Z,97429.09
2022-11-09T20:48:58.864Z,97424.19
2022-11-09T20:51:26.033Z,97428.22
2022-11-09T20:53:52.521Z,97433.28
2022-11-09T20:56:20.190Z,97434.94
2022-11-09T20:58:47.146Z,97437.38
2022-11-09T21:01:26.863Z,97436.66
2022-11-09T21:03:53.914Z,97441.59
2022-11-09T21:06:21.511Z,97434.13
2022-11-09T21:08:53.624Z,97461.13
2022-11-09T21:11:20.482Z,97466.66
2022-11-09T21:13:50.954Z,97465.22
2022-11-09T21:16:19.600Z,97458.66
2022-11-09T21:18:46.335Z,97474.16
2022-11-09T21:21:15.710Z,97485.91
2022-11-09T21:24:01.189Z,97507.41
2022-11-09T21:26:46.624Z,97515.34
2022-11-09T21:29:33.973Z,97512.06
2022-11-09T21:32:00.892Z,97526.69
2022-11-09T21:34:32.751Z,97518.41
2022-11-09T21:37:02.075Z,97547.75
2022-11-09T21:39:28.505Z,97540.41
2022-11-09T21:41:54.962Z,97552.38
2022-11-09T21:44:21.453Z,97580.09
2022-11-09T21:46:47.844Z,97584.59
2022-11-09T21:49:14.347Z,97589.44
2022-11-09T21:51:41.166Z,97593.44
2022-11-09T21:54:08.748Z,97594.47
2022-11-09T21:56:35.249Z,97569.50
2022-11-09T21:59:01.800Z,97611.38
2022-11-09T22:01:28.272Z,97599.22
2022-11-09T22:03:55.571Z,97599.13
2022-11-09T22:06:22.160Z,97603.44
2022-11-09T22:08:49.316Z,97608.72
2022-11-09T22:11:18.748Z,97604.69
2022-11-09T22:14:04.022Z,97606.16
2022-11-09T22:16:32.892Z,97609.66
2022-11-09T22:19:20.527Z,97618.78
2022-11-09T22:21:47.042Z,97610.13
2022-11-09T22:24:14.712Z,97626.91
2022-11-09T22:26:41.119Z,97623.69
2022-11-09T22:29:07.559Z,97614.41
2022-11-09T22:31:33.977Z,97625.50
2022-11-09T22:34:00.377Z,97643.50
2022-11-09T22:36:26.804Z,97648.50
2022-11-09T22:38:53.280Z,97653.66
2022-11-09T22:41:19.931Z,97667.56
2022-11-09T22:43:46.342Z,97676.59
2022-11-09T22:46:15.383Z,97671.50
2022-11-09T22:48:43.455Z,97684.28
2022-11-09T22:51:12.714Z,97703.22
2022-11-09T22:53:39.733Z,97683.63
2022-11-09T22:56:06.828Z,97685.44
2022-11-09T22:58:33.274Z,97710.88
2022-11-09T23:01:06.268Z,97712.50
2022-11-09T23:03:33.837Z,97713.34
2022-11-09T23:06:05.793Z,97718.06
2022-11-09T23:08:37.718Z,97723.19
2022-11-09T23:11:06.566Z,97735.94
2022-11-09T23:13:33.864Z,97728.84
2022-11-09T23:16:04.448Z,97726.75
2022-11-09T23:18:50.177Z,97746.06
2022-11-09T23:21:16.954Z,97735.47
2022-11-09T23:23:43.399Z,97748.75
2022-11-09T23:26:10.798Z,97741.78
2022-11-09T23:28:37.618Z,97744.44
2022-11-09T23:31:10.253Z,97738.53
2022-11-09T23:33:37.201Z,97732.94
2022-11-09T23:36:05.288Z,97708.75
2022-11-09T23:38:34.786Z,97720.41
2022-11-09T23:41:06.236Z,97723.91
2022-11-09T23:43:32.862Z,97721.41
2022-11-09T23:46:04.587Z,97723.13
2022-11-09T23:48:31.371Z,97722.63
2022-11-09T23:51:00.051Z,97727.56
2022-11-09T23:53:27.992Z,97719.84
2022-11-09T23:55:55.230Z,97720.50
2022-11-09T23:58:21.762Z,97708.16
